sensor_id;sensor_type;location;lat;lon;timestamp;temperature;humidity
37446;DHT22;23307;51.136;14.942;2023-08-07T00:01:46;16.20;99.90
37446;DHT22;23307;51.136;14.942;2023-08-07T00:04:12;16.20;99.90
37446;DHT22;23307;51.136;14.942;2023-08-07T00:06:37;16.20;99.90
37446;DHT22;23307;51.136;14.942;2023-08-07T00:09:03;16.20;99.90
37446;DHT22;23307;51.136;14.942;2023-08-07T00:11:29;16.30;99.90
37446;DHT22;23307;51.136;14.942;2023-08-07T00:13:55;16.30;99.90
37446;DHT22;23307;51.136;14.942;2023-08-07T00:16:20;16.30;99.90
37446;DHT22;23307;51.136;14.942;2023-08-07T00:18:46;16.30;99.90
37446;DHT22;23307;51.136;14.942;2023-08-07T00:21:11;16.30;99.90
37446;DHT22;23307;51.136;14.942;2023-08-07T00:23:37;16.30;99.90
37446;DHT22;23307;51.136;14.942;2023-08-07T00:26:03;16.30;99.90
37446;DHT22;23307;51.136;14.942;2023-08-07T00:28:28;16.30;99.90
37446;DHT22;23307;51.136;14.942;2023-08-07T00:30:55;16.30;99.90
37446;DHT22;23307;51.136;14.942;2023-08-07T00:33:20;16.30;99.90
37446;DHT22;23307;51.136;14.942;2023-08-07T00:35:46;16.30;99.90
37446;DHT22;23307;51.136;14.942;2023-08-07T00:38:12;16.30;99.90
37446;DHT22;23307;51.136;14.942;2023-08-07T00:40:38;16.30;99.90
37446;DHT22;23307;51.136;14.942;2023-08-07T00:43:04;16.30;99.90
37446;DHT22;23307;51.136;14.942;2023-08-07T00:45:36;16.30;99.90
37446;DHT22;23307;51.136;14.942;2023-08-07T00:48:03;16.30;99.90
37446;DHT22;23307;51.136;14.942;2023-08-07T00:50:29;16.30;99.90
37446;DHT22;23307;51.136;14.942;2023-08-07T00:52:55;16.30;99.90
37446;DHT22;23307;51.136;14.942;2023-08-07T00:55:21;16.20;99.90
37446;DHT22;23307;51.136;14.942;2023-08-07T00:57:46;16.20;99.90
37446;DHT22;23307;51.136;14.942;2023-08-07T01:00:13;16.10;99.90
37446;DHT22;23307;51.136;14.942;2023-08-07T01:02:40;16.10;99.90
37446;DHT22;23307;51.136;14.942;2023-08-07T01:05:05;16.10;99.90
37446;DHT22;23307;51.136;14.942;2023-08-07T01:07:31;16.10;99.90
37446;DHT22;23307;51.136;14.942;2023-08-07T01:09:56;16.20;99.90
37446;DHT22;23307;51.136;14.942;2023-08-07T01:12:30;16.20;99.90
37446;DHT22;23307;51.136;14.942;2023-08-07T01:15:06;16.20;99.90
37446;DHT22;23307;51.136;14.942;2023-08-07T01:17:35;16.20;99.90
37446;DHT22;23307;51.136;14.942;2023-08-07T01:20:01;16.20;99.90
37446;DHT22;23307;51.136;14.942;2023-08-07T01:22:27;16.20;99.90
37446;DHT22;23307;51.136;14.942;2023-08-07T01:24:53;16.30;99.90
37446;DHT22;23307;51.136;14.942;2023-08-07T01:32:49;16.30;99.90
37446;DHT22;23307;51.136;14.942;2023-08-07T01:35:21;16.30;99.90
37446;DHT22;23307;51.136;14.942;2023-08-07T01:37:51;16.30;99.90
37446;DHT22;23307;51.136;14.942;2023-08-07T01:40:17;16.20;99.90
37446;DHT22;23307;51.136;14.942;2023-08-07T01:42:44;16.20;99.90
37446;DHT22;23307;51.136;14.942;2023-08-07T01:45:10;16.20;99.90
37446;DHT22;23307;51.136;14.942;2023-08-07T01:47:35;16.20;99.90
37446;DHT22;23307;51.136;14.942;2023-08-07T01:50:01;16.10;99.90
37446;DHT22;23307;51.136;14.942;2023-08-07T01:52:27;16.10;99.90
37446;DHT22;23307;51.136;14.942;2023-08-07T01:54:52;16.10;99.90
37446;DHT22;23307;51.136;14.942;2023-08-07T01:57:18;16.10;99.90
37446;DHT22;23307;51.136;14.942;2023-08-07T01:59:44;16.00;99.90
37446;DHT22;23307;51.136;14.942;2023-08-07T02:02:10;16.00;99.90
37446;DHT22;23307;51.136;14.942;2023-08-07T02:04:35;16.00;99.90
37446;DHT22;23307;51.136;14.942;2023-08-07T02:07:01;15.90;99.90
37446;DHT22;23307;51.136;14.942;2023-08-07T02:09:26;15.90;99.90
37446;DHT22;23307;51.136;14.942;2023-08-07T02:11:52;15.90;99.90
37446;DHT22;23307;51.136;14.942;2023-08-07T02:14:17;15.80;99.90
37446;DHT22;23307;51.136;14.942;2023-08-07T02:16:43;15.80;99.90
37446;DHT22;23307;51.136;14.942;2023-08-07T02:19:08;15.80;99.90
37446;DHT22;23307;51.136;14.942;2023-08-07T02:21:34;15.80;99.90
37446;DHT22;23307;51.136;14.942;2023-08-07T02:23:59;15.80;99.90
37446;DHT22;23307;51.136;14.942;2023-08-07T02:26:25;15.80;99.90
37446;DHT22;23307;51.136;14.942;2023-08-07T02:28:50;15.80;99.90
37446;DHT22;23307;51.136;14.942;2023-08-07T02:31:16;15.80;99.90
37446;DHT22;23307;51.136;14.942;2023-08-07T02:33:41;15.80;99.90
37446;DHT22;23307;51.136;14.942;2023-08-07T02:36:07;15.70;99.90
37446;DHT22;23307;51.136;14.942;2023-08-07T02:38:33;15.70;99.90
37446;DHT22;23307;51.136;14.942;2023-08-07T02:40:59;15.70;99.90
37446;DHT22;23307;51.136;14.942;2023-08-07T02:43:24;15.70;99.90
37446;DHT22;23307;51.136;14.942;2023-08-07T02:45:51;15.60;99.90
37446;DHT22;23307;51.136;14.942;2023-08-07T02:48:16;15.60;99.90
37446;DHT22;23307;51.136;14.942;2023-08-07T02:50:43;15.60;99.90
37446;DHT22;23307;51.136;14.942;2023-08-07T02:53:10;15.60;99.90
37446;DHT22;23307;51.136;14.942;2023-08-07T02:55:36;15.60;99.90
37446;DHT22;23307;51.136;14.942;2023-08-07T02:58:01;15.60;99.90
37446;DHT22;23307;51.136;14.942;2023-08-07T03:00:27;15.60;99.90
37446;DHT22;23307;51.136;14.942;2023-08-07T03:02:52;15.60;99.90
37446;DHT22;23307;51.136;14.942;2023-08-07T03:05:18;15.60;99.90
37446;DHT22;23307;51.136;14.942;2023-08-07T03:07:44;15.50;99.90
37446;DHT22;23307;51.136;14.942;2023-08-07T03:10:10;15.50;99.90
37446;DHT22;23307;51.136;14.942;2023-08-07T03:12:36;15.50;99.90
37446;DHT22;23307;51.136;14.942;2023-08-07T03:15:03;15.50;99.90
37446;DHT22;23307;51.136;14.942;2023-08-07T03:17:29;15.50;99.90
37446;DHT22;23307;51.136;14.942;2023-08-07T03:19:55;15.60;99.90
37446;DHT22;23307;51.136;14.942;2023-08-07T03:22:20;15.60;99.90
37446;DHT22;23307;51.136;14.942;2023-08-07T03:24:52;15.60;99.90
37446;DHT22;23307;51.136;14.942;2023-08-07T03:27:17;15.60;99.90
37446;DHT22;23307;51.136;14.942;2023-08-07T03:29:43;15.60;99.90
37446;DHT22;23307;51.136;14.942;2023-08-07T03:32:09;15.60;99.90
37446;DHT22;23307;51.136;14.942;2023-08-07T03:34:35;15.50;99.90
37446;DHT22;23307;51.136;14.942;2023-08-07T03:37:00;15.50;99.90
37446;DHT22;23307;51.136;14.942;2023-08-07T03:39:26;15.60;99.90
37446;DHT22;23307;51.136;14.942;2023-08-07T03:41:51;15.60;99.90
37446;DHT22;23307;51.136;14.942;2023-08-07T03:44:17;15.50;99.90
37446;DHT22;23307;51.136;14.942;2023-08-07T03:46:42;15.50;99.90
37446;DHT22;23307;51.136;14.942;2023-08-07T03:49:08;15.50;99.90
37446;DHT22;23307;51.136;14.942;2023-08-07T03:51:33;15.50;99.90
37446;DHT22;23307;51.136;14.942;2023-08-07T03:53:59;15.50;99.90
37446;DHT22;23307;51.136;14.942;2023-08-07T03:56:25;15.60;99.90
37446;DHT22;23307;51.136;14.942;2023-08-07T03:58:50;15.60;99.90
37446;DHT22;23307;51.136;14.942;2023-08-07T04:01:16;15.60;99.90
37446;DHT22;23307;51.136;14.942;2023-08-07T04:03:42;15.60;99.90
37446;DHT22;23307;51.136;14.942;2023-08-07T04:06:07;15.70;99.90
37446;DHT22;23307;51.136;14.942;2023-08-07T04:08:33;15.70;99.90
37446;DHT22;23307;51.136;14.942;2023-08-07T04:11:03;15.60;99.90
37446;DHT22;23307;51.136;14.942;2023-08-07T04:13:30;15.60;99.90
37446;DHT22;23307;51.136;14.942;2023-08-07T04:15:56;15.70;99.90
37446;DHT22;23307;51.136;14.942;2023-08-07T04:18:22;15.70;99.90
37446;DHT22;23307;51.136;14.942;2023-08-07T04:20:55;15.60;99.90
37446;DHT22;23307;51.136;14.942;2023-08-07T04:23:22;15.60;99.90
37446;DHT22;23307;51.136;14.942;2023-08-07T04:25:48;15.60;99.90
37446;DHT22;23307;51.136;14.942;2023-08-07T04:28:13;15.60;99.90
37446;DHT22;23307;51.136;14.942;2023-08-07T04:30:40;15.60;99.90
37446;DHT22;23307;51.136;14.942;2023-08-07T04:33:06;15.70;99.90
37446;DHT22;23307;51.136;14.942;2023-08-07T04:35:32;15.70;99.90
37446;DHT22;23307;51.136;14.942;2023-08-07T04:37:57;15.70;99.90
37446;DHT22;23307;51.136;14.942;2023-08-07T04:40:23;15.70;99.90
37446;DHT22;23307;51.136;14.942;2023-08-07T04:42:49;15.70;99.90
37446;DHT22;23307;51.136;14.942;2023-08-07T04:45:15;15.70;99.90
37446;DHT22;23307;51.136;14.942;2023-08-07T04:47:40;15.70;99.90
37446;DHT22;23307;51.136;14.942;2023-08-07T04:50:07;15.60;99.90
37446;DHT22;23307;51.136;14.942;2023-08-07T04:52:33;15.60;99.90
37446;DHT22;23307;51.136;14.942;2023-08-07T04:54:59;15.70;99.90
37446;DHT22;23307;51.136;14.942;2023-08-07T04:57:24;15.60;99.90
37446;DHT22;23307;51.136;14.942;2023-08-07T04:59:50;15.60;99.90
37446;DHT22;23307;51.136;14.942;2023-08-07T05:02:16;15.60;99.90
37446;DHT22;23307;51.136;14.942;2023-08-07T05:04:41;15.60;99.90
37446;DHT22;23307;51.136;14.942;2023-08-07T05:07:07;15.60;99.90
37446;DHT22;23307;51.136;14.942;2023-08-07T05:09:33;15.60;99.90
37446;DHT22;23307;51.136;14.942;2023-08-07T05:11:58;15.70;99.90
37446;DHT22;23307;51.136;14.942;2023-08-07T05:14:23;15.60;99.90
37446;DHT22;23307;51.136;14.942;2023-08-07T05:16:49;15.70;99.90
37446;DHT22;23307;51.136;14.942;2023-08-07T05:19:15;15.70;99.90
37446;DHT22;23307;51.136;14.942;2023-08-07T05:21:40;15.70;99.90
37446;DHT22;23307;51.136;14.942;2023-08-07T05:24:06;15.70;99.90
37446;DHT22;23307;51.136;14.942;2023-08-07T05:26:31;15.70;99.90
37446;DHT22;23307;51.136;14.942;2023-08-07T05:28:57;15.70;99.90
37446;DHT22;23307;51.136;14.942;2023-08-07T05:31:24;15.60;99.90
37446;DHT22;23307;51.136;14.942;2023-08-07T05:33:50;15.60;99.90
37446;DHT22;23307;51.136;14.942;2023-08-07T05:36:15;15.60;99.90
37446;DHT22;23307;51.136;14.942;2023-08-07T05:38:41;15.60;99.90
37446;DHT22;23307;51.136;14.942;2023-08-07T05:41:08;15.50;99.90
37446;DHT22;23307;51.136;14.942;2023-08-07T05:43:34;15.50;99.90
37446;DHT22;23307;51.136;14.942;2023-08-07T05:46:00;15.60;99.90
37446;DHT22;23307;51.136;14.942;2023-08-07T05:48:26;15.60;99.90
37446;DHT22;23307;51.136;14.942;2023-08-07T05:50:52;15.60;99.90
37446;DHT22;23307;51.136;14.942;2023-08-07T05:53:18;15.70;99.90
37446;DHT22;23307;51.136;14.942;2023-08-07T05:55:43;15.70;99.90
37446;DHT22;23307;51.136;14.942;2023-08-07T05:58:09;15.70;99.90
37446;DHT22;23307;51.136;14.942;2023-08-07T06:00:34;15.80;99.90
37446;DHT22;23307;51.136;14.942;2023-08-07T06:03:00;15.80;99.90
37446;DHT22;23307;51.136;14.942;2023-08-07T06:05:26;15.80;99.90
37446;DHT22;23307;51.136;14.942;2023-08-07T06:07:51;15.80;99.90
37446;DHT22;23307;51.136;14.942;2023-08-07T06:10:17;15.80;99.90
37446;DHT22;23307;51.136;14.942;2023-08-07T06:12:42;15.80;99.90
37446;DHT22;23307;51.136;14.942;2023-08-07T06:15:08;15.80;99.90
37446;DHT22;23307;51.136;14.942;2023-08-07T06:17:34;15.80;99.90
37446;DHT22;23307;51.136;14.942;2023-08-07T06:20:00;15.90;99.90
37446;DHT22;23307;51.136;14.942;2023-08-07T06:22:25;15.90;99.90
37446;DHT22;23307;51.136;14.942;2023-08-07T06:24:51;16.00;99.90
37446;DHT22;23307;51.136;14.942;2023-08-07T06:27:16;16.10;99.90
37446;DHT22;23307;51.136;14.942;2023-08-07T06:29:42;16.20;99.90
37446;DHT22;23307;51.136;14.942;2023-08-07T06:32:08;16.30;99.90
37446;DHT22;23307;51.136;14.942;2023-08-07T06:34:35;16.40;99.90
37446;DHT22;23307;51.136;14.942;2023-08-07T06:37:03;16.50;99.90
37446;DHT22;23307;51.136;14.942;2023-08-07T06:39:29;16.30;99.90
37446;DHT22;23307;51.136;14.942;2023-08-07T06:41:55;16.30;99.90
37446;DHT22;23307;51.136;14.942;2023-08-07T06:44:20;16.20;99.90
37446;DHT22;23307;51.136;14.942;2023-08-07T06:46:46;16.20;99.90
37446;DHT22;23307;51.136;14.942;2023-08-07T06:49:11;16.20;99.90
37446;DHT22;23307;51.136;14.942;2023-08-07T06:51:37;16.20;99.90
37446;DHT22;23307;51.136;14.942;2023-08-07T06:54:02;16.10;99.90
37446;DHT22;23307;51.136;14.942;2023-08-07T06:56:31;16.20;99.90
37446;DHT22;23307;51.136;14.942;2023-08-07T06:58:56;16.20;99.90
37446;DHT22;23307;51.136;14.942;2023-08-07T07:01:22;16.20;99.90
37446;DHT22;23307;51.136;14.942;2023-08-07T07:03:47;16.20;99.90
37446;DHT22;23307;51.136;14.942;2023-08-07T07:06:18;16.10;99.90
37446;DHT22;23307;51.136;14.942;2023-08-07T07:08:43;16.20;99.90
37446;DHT22;23307;51.136;14.942;2023-08-07T07:11:09;16.20;99.90
37446;DHT22;23307;51.136;14.942;2023-08-07T07:13:34;16.20;99.90
37446;DHT22;23307;51.136;14.942;2023-08-07T07:16:00;16.30;99.90
37446;DHT22;23307;51.136;14.942;2023-08-07T07:18:26;16.30;99.90
37446;DHT22;23307;51.136;14.942;2023-08-07T07:20:59;16.40;99.90
37446;DHT22;23307;51.136;14.942;2023-08-07T07:23:26;16.40;99.90
37446;DHT22;23307;51.136;14.942;2023-08-07T07:25:52;16.50;99.90
37446;DHT22;23307;51.136;14.942;2023-08-07T07:28:17;16.50;99.90
37446;DHT22;23307;51.136;14.942;2023-08-07T07:30:43;16.60;99.90
37446;DHT22;23307;51.136;14.942;2023-08-07T07:33:08;16.70;99.90
37446;DHT22;23307;51.136;14.942;2023-08-07T07:35:37;16.80;99.90
37446;DHT22;23307;51.136;14.942;2023-08-07T07:38:03;16.80;99.90
37446;DHT22;23307;51.136;14.942;2023-08-07T07:40:29;16.90;99.90
37446;DHT22;23307;51.136;14.942;2023-08-07T07:42:54;16.90;99.90
37446;DHT22;23307;51.136;14.942;2023-08-07T07:45:20;16.80;99.90
37446;DHT22;23307;51.136;14.942;2023-08-07T07:47:45;16.90;99.90
37446;DHT22;23307;51.136;14.942;2023-08-07T07:50:11;16.90;99.90
37446;DHT22;23307;51.136;14.942;2023-08-07T07:52:38;16.90;99.90
37446;DHT22;23307;51.136;14.942;2023-08-07T07:55:04;17.00;99.90
37446;DHT22;23307;51.136;14.942;2023-08-07T07:57:30;17.10;99.90
37446;DHT22;23307;51.136;14.942;2023-08-07T07:59:56;17.30;99.90
37446;DHT22;23307;51.136;14.942;2023-08-07T08:02:22;17.40;99.90
37446;DHT22;23307;51.136;14.942;2023-08-07T08:04:50;17.50;99.90
37446;DHT22;23307;51.136;14.942;2023-08-07T08:07:17;17.70;99.90
37446;DHT22;23307;51.136;14.942;2023-08-07T08:09:42;17.80;99.90
37446;DHT22;23307;51.136;14.942;2023-08-07T08:12:08;17.90;99.90
37446;DHT22;23307;51.136;14.942;2023-08-07T08:14:34;17.80;99.90
37446;DHT22;23307;51.136;14.942;2023-08-07T08:16:59;17.70;99.90
37446;DHT22;23307;51.136;14.942;2023-08-07T08:19:25;17.60;99.90
37446;DHT22;23307;51.136;14.942;2023-08-07T08:21:50;17.50;99.90
37446;DHT22;23307;51.136;14.942;2023-08-07T08:24:16;17.50;99.90
37446;DHT22;23307;51.136;14.942;2023-08-07T08:26:41;17.50;99.90
37446;DHT22;23307;51.136;14.942;2023-08-07T08:29:07;17.60;99.90
37446;DHT22;23307;51.136;14.942;2023-08-07T08:31:34;17.60;99.90
37446;DHT22;23307;51.136;14.942;2023-08-07T08:33:59;17.80;99.90
37446;DHT22;23307;51.136;14.942;2023-08-07T08:36:25;17.90;99.90
37446;DHT22;23307;51.136;14.942;2023-08-07T08:38:51;18.00;99.90
37446;DHT22;23307;51.136;14.942;2023-08-07T08:41:17;18.00;99.90
37446;DHT22;23307;51.136;14.942;2023-08-07T08:43:45;18.10;99.90
37446;DHT22;23307;51.136;14.942;2023-08-07T08:46:11;18.40;99.90
37446;DHT22;23307;51.136;14.942;2023-08-07T08:48:38;18.30;99.90
37446;DHT22;23307;51.136;14.942;2023-08-07T08:51:04;18.10;99.90
37446;DHT22;23307;51.136;14.942;2023-08-07T08:53:32;18.20;99.90
37446;DHT22;23307;51.136;14.942;2023-08-07T08:56:00;18.40;99.90
37446;DHT22;23307;51.136;14.942;2023-08-07T08:58:27;18.40;99.90
37446;DHT22;23307;51.136;14.942;2023-08-07T09:00:53;18.50;99.90
37446;DHT22;23307;51.136;14.942;2023-08-07T09:03:19;18.70;99.90
37446;DHT22;23307;51.136;14.942;2023-08-07T09:05:45;18.90;99.90
37446;DHT22;23307;51.136;14.942;2023-08-07T09:08:12;18.90;99.90
37446;DHT22;23307;51.136;14.942;2023-08-07T09:10:38;18.80;99.90
37446;DHT22;23307;51.136;14.942;2023-08-07T09:13:07;18.80;99.90
37446;DHT22;23307;51.136;14.942;2023-08-07T09:15:36;19.00;99.90
37446;DHT22;23307;51.136;14.942;2023-08-07T09:18:05;18.80;99.90
37446;DHT22;23307;51.136;14.942;2023-08-07T09:20:33;18.50;99.90
37446;DHT22;23307;51.136;14.942;2023-08-07T09:22:59;18.20;99.90
37446;DHT22;23307;51.136;14.942;2023-08-07T09:25:32;18.00;99.90
37446;DHT22;23307;51.136;14.942;2023-08-07T09:28:01;17.90;99.90
37446;DHT22;23307;51.136;14.942;2023-08-07T09:30:29;17.70;99.90
37446;DHT22;23307;51.136;14.942;2023-08-07T09:33:02;17.70;99.90
37446;DHT22;23307;51.136;14.942;2023-08-07T09:35:29;17.80;99.90
37446;DHT22;23307;51.136;14.942;2023-08-07T09:37:57;17.80;99.90
37446;DHT22;23307;51.136;14.942;2023-08-07T09:40:23;17.80;99.90
37446;DHT22;23307;51.136;14.942;2023-08-07T09:42:54;17.70;99.90
37446;DHT22;23307;51.136;14.942;2023-08-07T09:45:25;17.60;99.90
37446;DHT22;23307;51.136;14.942;2023-08-07T09:48:01;17.50;99.90
37446;DHT22;23307;51.136;14.942;2023-08-07T09:50:27;17.60;99.90
37446;DHT22;23307;51.136;14.942;2023-08-07T09:52:54;17.80;99.90
37446;DHT22;23307;51.136;14.942;2023-08-07T09:55:21;18.20;99.90
37446;DHT22;23307;51.136;14.942;2023-08-07T09:57:48;18.30;99.90
37446;DHT22;23307;51.136;14.942;2023-08-07T10:00:14;18.50;99.90
37446;DHT22;23307;51.136;14.942;2023-08-07T10:02:41;18.60;99.90
37446;DHT22;23307;51.136;14.942;2023-08-07T10:05:11;18.80;99.90
37446;DHT22;23307;51.136;14.942;2023-08-07T10:07:38;18.90;99.90
37446;DHT22;23307;51.136;14.942;2023-08-07T10:10:04;18.90;99.90
37446;DHT22;23307;51.136;14.942;2023-08-07T10:12:30;19.00;99.90
37446;DHT22;23307;51.136;14.942;2023-08-07T10:14:56;19.20;99.90
37446;DHT22;23307;51.136;14.942;2023-08-07T10:17:25;19.50;99.90
37446;DHT22;23307;51.136;14.942;2023-08-07T10:19:53;19.60;99.90
37446;DHT22;23307;51.136;14.942;2023-08-07T10:22:19;19.60;99.90
37446;DHT22;23307;51.136;14.942;2023-08-07T10:24:48;19.40;99.90
37446;DHT22;23307;51.136;14.942;2023-08-07T10:27:16;19.10;99.90
37446;DHT22;23307;51.136;14.942;2023-08-07T10:29:44;19.00;99.90
37446;DHT22;23307;51.136;14.942;2023-08-07T10:32:11;19.10;99.90
37446;DHT22;23307;51.136;14.942;2023-08-07T10:34:38;19.00;99.90
37446;DHT22;23307;51.136;14.942;2023-08-07T10:37:07;18.80;99.90
37446;DHT22;23307;51.136;14.942;2023-08-07T10:39:33;18.70;99.90
37446;DHT22;23307;51.136;14.942;2023-08-07T10:41:59;18.90;99.90
37446;DHT22;23307;51.136;14.942;2023-08-07T10:44:29;19.10;99.90
37446;DHT22;23307;51.136;14.942;2023-08-07T10:46:57;19.20;99.90
37446;DHT22;23307;51.136;14.942;2023-08-07T10:49:38;19.10;99.90
37446;DHT22;23307;51.136;14.942;2023-08-07T10:52:14;19.00;99.90
37446;DHT22;23307;51.136;14.942;2023-08-07T10:54:48;18.80;99.90
37446;DHT22;23307;51.136;14.942;2023-08-07T10:57:14;18.70;99.90
37446;DHT22;23307;51.136;14.942;2023-08-07T10:59:49;18.60;99.90
37446;DHT22;23307;51.136;14.942;2023-08-07T11:02:25;18.60;99.90
37446;DHT22;23307;51.136;14.942;2023-08-07T11:04:54;18.40;99.90
37446;DHT22;23307;51.136;14.942;2023-08-07T11:07:25;18.20;99.90
37446;DHT22;23307;51.136;14.942;2023-08-07T11:09:51;18.10;99.90
37446;DHT22;23307;51.136;14.942;2023-08-07T11:12:17;18.20;99.90
37446;DHT22;23307;51.136;14.942;2023-08-07T11:14:42;18.30;99.90
37446;DHT22;23307;51.136;14.942;2023-08-07T11:17:08;18.30;99.90
37446;DHT22;23307;51.136;14.942;2023-08-07T11:19:35;18.50;99.90
37446;DHT22;23307;51.136;14.942;2023-08-07T11:22:01;18.50;99.90
37446;DHT22;23307;51.136;14.942;2023-08-07T11:24:27;18.40;99.90
37446;DHT22;23307;51.136;14.942;2023-08-07T11:26:53;18.40;99.90
37446;DHT22;23307;51.136;14.942;2023-08-07T11:29:21;18.60;99.90
37446;DHT22;23307;51.136;14.942;2023-08-07T11:31:50;18.90;99.90
37446;DHT22;23307;51.136;14.942;2023-08-07T11:34:17;19.00;99.90
37446;DHT22;23307;51.136;14.942;2023-08-07T11:36:44;19.20;99.90
37446;DHT22;23307;51.136;14.942;2023-08-07T11:39:10;19.50;99.90
37446;DHT22;23307;51.136;14.942;2023-08-07T11:41:36;19.70;99.90
37446;DHT22;23307;51.136;14.942;2023-08-07T11:44:01;19.90;99.90
37446;DHT22;23307;51.136;14.942;2023-08-07T11:46:27;20.10;99.90
37446;DHT22;23307;51.136;14.942;2023-08-07T11:48:52;20.00;99.90
37446;DHT22;23307;51.136;14.942;2023-08-07T11:51:20;19.90;99.90
37446;DHT22;23307;51.136;14.942;2023-08-07T11:53:45;19.90;99.90
37446;DHT22;23307;51.136;14.942;2023-08-07T11:56:12;19.70;99.90
37446;DHT22;23307;51.136;14.942;2023-08-07T11:58:47;19.60;99.90
37446;DHT22;23307;51.136;14.942;2023-08-07T12:01:14;19.40;99.90
37446;DHT22;23307;51.136;14.942;2023-08-07T12:03:50;19.30;99.90
37446;DHT22;23307;51.136;14.942;2023-08-07T12:06:16;19.10;99.90
37446;DHT22;23307;51.136;14.942;2023-08-07T12:08:42;19.00;99.90
37446;DHT22;23307;51.136;14.942;2023-08-07T12:11:12;18.80;99.90
37446;DHT22;23307;51.136;14.942;2023-08-07T12:13:42;18.80;99.90
37446;DHT22;23307;51.136;14.942;2023-08-07T12:16:09;18.70;99.90
37446;DHT22;23307;51.136;14.942;2023-08-07T12:18:35;18.70;99.90
37446;DHT22;23307;51.136;14.942;2023-08-07T12:21:04;18.80;99.90
37446;DHT22;23307;51.136;14.942;2023-08-07T12:23:33;18.80;99.90
37446;DHT22;23307;51.136;14.942;2023-08-07T12:25:58;19.10;99.90
37446;DHT22;23307;51.136;14.942;2023-08-07T12:28:24;19.60;99.90
37446;DHT22;23307;51.136;14.942;2023-08-07T12:30:51;19.90;99.90
37446;DHT22;23307;51.136;14.942;2023-08-07T12:33:17;20.20;99.90
37446;DHT22;23307;51.136;14.942;2023-08-07T12:35:42;20.40;99.90
37446;DHT22;23307;51.136;14.942;2023-08-07T12:38:09;20.40;99.90
37446;DHT22;23307;51.136;14.942;2023-08-07T12:40:35;20.40;99.90
37446;DHT22;23307;51.136;14.942;2023-08-07T12:43:02;20.40;99.90
37446;DHT22;23307;51.136;14.942;2023-08-07T12:45:28;20.20;99.90
37446;DHT22;23307;51.136;14.942;2023-08-07T12:47:53;20.10;99.90
37446;DHT22;23307;51.136;14.942;2023-08-07T12:50:19;20.20;99.90
37446;DHT22;23307;51.136;14.942;2023-08-07T12:52:45;20.30;99.90
37446;DHT22;23307;51.136;14.942;2023-08-07T12:55:11;20.20;99.90
37446;DHT22;23307;51.136;14.942;2023-08-07T12:57:37;20.30;99.90
37446;DHT22;23307;51.136;14.942;2023-08-07T13:00:04;20.40;99.90
37446;DHT22;23307;51.136;14.942;2023-08-07T13:02:29;20.40;99.90
37446;DHT22;23307;51.136;14.942;2023-08-07T13:04:55;20.20;99.90
37446;DHT22;23307;51.136;14.942;2023-08-07T13:07:22;20.10;99.90
37446;DHT22;23307;51.136;14.942;2023-08-07T13:09:48;20.10;99.90
37446;DHT22;23307;51.136;14.942;2023-08-07T13:12:13;20.20;99.90
37446;DHT22;23307;51.136;14.942;2023-08-07T13:14:39;20.30;99.90
37446;DHT22;23307;51.136;14.942;2023-08-07T13:17:04;20.50;99.90
37446;DHT22;23307;51.136;14.942;2023-08-07T13:19:30;20.60;99.90
37446;DHT22;23307;51.136;14.942;2023-08-07T13:21:55;20.70;99.90
37446;DHT22;23307;51.136;14.942;2023-08-07T13:24:21;21.10;99.90
37446;DHT22;23307;51.136;14.942;2023-08-07T13:26:46;21.40;99.90
37446;DHT22;23307;51.136;14.942;2023-08-07T13:29:12;21.60;99.90
37446;DHT22;23307;51.136;14.942;2023-08-07T13:31:38;21.70;99.90
37446;DHT22;23307;51.136;14.942;2023-08-07T13:34:03;21.70;99.90
37446;DHT22;23307;51.136;14.942;2023-08-07T13:36:37;21.70;99.90
37446;DHT22;23307;51.136;14.942;2023-08-07T13:39:04;21.80;99.90
37446;DHT22;23307;51.136;14.942;2023-08-07T13:41:29;22.00;99.90
37446;DHT22;23307;51.136;14.942;2023-08-07T13:43:55;21.60;99.90
37446;DHT22;23307;51.136;14.942;2023-08-07T13:46:20;21.50;99.90
37446;DHT22;23307;51.136;14.942;2023-08-07T13:48:47;21.50;99.90
37446;DHT22;23307;51.136;14.942;2023-08-07T13:51:14;21.30;99.90
37446;DHT22;23307;51.136;14.942;2023-08-07T13:53:39;21.10;99.90
37446;DHT22;23307;51.136;14.942;2023-08-07T13:56:05;21.00;99.90
37446;DHT22;23307;51.136;14.942;2023-08-07T13:58:31;21.10;99.90
37446;DHT22;23307;51.136;14.942;2023-08-07T14:00:57;21.10;99.90
37446;DHT22;23307;51.136;14.942;2023-08-07T14:03:23;21.10;99.90
37446;DHT22;23307;51.136;14.942;2023-08-07T14:05:49;21.00;99.90
37446;DHT22;23307;51.136;14.942;2023-08-07T14:08:15;20.80;99.90
37446;DHT22;23307;51.136;14.942;2023-08-07T14:10:41;20.60;99.90
37446;DHT22;23307;51.136;14.942;2023-08-07T14:13:07;20.50;99.90
37446;DHT22;23307;51.136;14.942;2023-08-07T14:15:33;20.40;99.90
37446;DHT22;23307;51.136;14.942;2023-08-07T14:17:58;20.40;99.90
37446;DHT22;23307;51.136;14.942;2023-08-07T14:20:25;20.30;99.90
37446;DHT22;23307;51.136;14.942;2023-08-07T14:22:50;20.00;99.90
37446;DHT22;23307;51.136;14.942;2023-08-07T14:25:16;20.00;99.90
37446;DHT22;23307;51.136;14.942;2023-08-07T14:27:41;20.10;99.90
37446;DHT22;23307;51.136;14.942;2023-08-07T14:30:07;20.00;99.90
37446;DHT22;23307;51.136;14.942;2023-08-07T14:32:33;20.00;99.90
37446;DHT22;23307;51.136;14.942;2023-08-07T14:34:59;20.00;99.90
37446;DHT22;23307;51.136;14.942;2023-08-07T14:37:24;20.00;99.90
37446;DHT22;23307;51.136;14.942;2023-08-07T14:39:50;20.10;99.90
37446;DHT22;23307;51.136;14.942;2023-08-07T14:42:15;20.10;99.90
37446;DHT22;23307;51.136;14.942;2023-08-07T14:44:41;20.00;99.90
37446;DHT22;23307;51.136;14.942;2023-08-07T14:47:07;19.90;99.90
37446;DHT22;23307;51.136;14.942;2023-08-07T14:49:32;19.80;99.90
37446;DHT22;23307;51.136;14.942;2023-08-07T14:51:58;19.60;99.90
37446;DHT22;23307;51.136;14.942;2023-08-07T14:54:23;19.10;99.90
37446;DHT22;23307;51.136;14.942;2023-08-07T14:56:49;18.70;99.90
37446;DHT22;23307;51.136;14.942;2023-08-07T14:59:15;18.50;99.90
37446;DHT22;23307;51.136;14.942;2023-08-07T15:01:40;18.50;99.90
37446;DHT22;23307;51.136;14.942;2023-08-07T15:04:06;18.90;99.90
37446;DHT22;23307;51.136;14.942;2023-08-07T15:06:31;19.20;99.90
37446;DHT22;23307;51.136;14.942;2023-08-07T15:08:58;19.40;99.90
37446;DHT22;23307;51.136;14.942;2023-08-07T15:11:24;19.50;99.90
37446;DHT22;23307;51.136;14.942;2023-08-07T15:13:49;19.40;99.90
37446;DHT22;23307;51.136;14.942;2023-08-07T15:16:15;19.60;99.90